Tuesday, April 24, 2018, 4:20 AM EDT
Back to Local

KNEL, Lakehurst Naval Air Station

Location: Lakehurst, NJ, United States Lat: 40.033
Local Time: 4:20 AM EDT ( 8:20 GMT) Lon: -74.317
Time Zone: US/Eastern Elev: 101 ft

Show me the last for .
Show Decoded

2018-04-24 04:00 METAR KNEL 240800Z AUTO 00000KT 10SM CLR 00/M01 A3038 RMK AO2 SLP286 T00001011
                 PNO =
2018-04-24 03:00 METAR KNEL 240700Z AUTO 00000KT 10SM CLR 01/M01 A3039 RMK AO2 SLP290 T00061006
                 PNO =
2018-04-24 02:00 METAR KNEL 240600Z AUTO 00000KT 10SM CLR 03/01 A3039 RMK AO2 SLP290 6////
                 T00280011 10122 20011 56009 PNO =
2018-04-24 01:00 METAR KNEL 240500Z AUTO 00000KT 10SM CLR 03/00 A3041 RMK AO2 SLP297 T00280000
                 400280028 PNO =
2018-04-24 00:00 METAR KNEL 240400Z AUTO 29004KT 10SM CLR 03/01 A3043 RMK AO2 SLP302 T00280006
                 PNO =
2018-04-23 23:00 METAR KNEL 240300Z AUTO 00000KT 10SM CLR 06/01 A3042 RMK AO2 SLP301 6////
                 T00560006 51010 PNO =
2018-04-23 22:00 METAR KNEL 240200Z AUTO 17003KT 10SM CLR 09/01 A3044 RMK AO2 SLP306 T00890011
                 PNO =
2018-04-23 21:00 METAR KNEL 240100Z AUTO 16006KT 10SM CLR 09/00 A3044 RMK AO2 SLP306 T00940000
                 PNO =
2018-04-23 20:00 METAR KNEL 240000Z AUTO 15007KT 10SM CLR 12/M02 A3041 RMK AO2 SLP298 6////
                 T01221022 10189 20122 55007 PNO =
2018-04-23 19:00 METAR KNEL 232300Z AUTO 15010KT 10SM CLR 15/M01 A3041 RMK AO2 SLP296 T01501011
                 PNO =
2018-04-23 18:00 METAR KNEL 232200Z AUTO 14010KT 10SM CLR 16/01 A3041 RMK AO2 SLP296 T01610006
                 PNO =
2018-04-23 17:00 METAR KNEL 232100Z AUTO 12010KT 10SM CLR 17/03 A3040 RMK AO2 SLP295 6////
                 T01720028 58003 PNO =
2018-04-23 16:00 METAR KNEL 232000Z AUTO 12008KT 10SM CLR 16/02 A3043 RMK AO2 SLP303 T01610022
                 PNO =
2018-04-23 15:00 METAR KNEL 231900Z AUTO 11010KT 10SM CLR 17/02 A3043 RMK AO2 SLP304 T01670017
                 PNO =
2018-04-23 14:00 METAR KNEL 231800Z AUTO 08012KT 10SM CLR 18/M01 A3044 RMK AO2 SLP306 6////
                 T01831011 10189 20072 58007 PNO =
2018-04-23 13:00 METAR KNEL 231700Z AUTO 11010G15KT 10SM CLR 18/M02 A3044 RMK AO2 SLP306
                 T01831017 PNO =
2018-04-23 12:00 METAR KNEL 231600Z AUTO 14006KT 10SM CLR 19/M02 A3044 RMK AO2 SLP308 T01891022
                 PNO =
2018-04-23 11:00 METAR KNEL 231500Z AUTO 11004KT 10SM CLR 17/M01 A3046 RMK AO2 SLP312 6////
                 T01671011 50004 PNO =
2018-04-23 10:00 METAR KNEL 231400Z AUTO VRB06KT 10SM CLR 15/M01 A3046 RMK AO2 SLP313 T01501011
                 PNO =
2018-04-23 09:00 METAR KNEL 231300Z AUTO 08003KT 10SM CLR 12/00 A3047 RMK AO2 SLP315 T01220000
                 PNO =
2018-04-23 08:00 METAR KNEL 231200Z AUTO 00000KT 10SM CLR 07/02 A3046 RMK AO2 SLP313 6//// 7////
                 T00720022 10072 21017 53010 PNO =
2018-04-23 07:00 METAR KNEL 231100Z AUTO 00000KT 7SM CLR 01/M01 A3045 RMK AO2 SLP308 T00061006
                 PNO =
2018-04-23 06:00 METAR KNEL 231000Z AUTO 00000KT 5SM BR CLR M01/M02 A3043 RMK AO2 SLP302
                 T10061017 PNO =
2018-04-23 05:00 METAR KNEL 230900Z AUTO 00000KT 6SM BR CLR M01/M02 A3042 RMK AO2 SLP299 6////
                 T10061022 53006 PNO =

Support USWX by starting your Amazon purchase here.